createdAt,value
2022-11-01T00:03:13.685Z,5.05
2022-11-01T00:06:55.721Z,4.88
2022-11-01T00:10:39.277Z,7.88
2022-11-01T00:14:31.270Z,4.38
2022-11-01T00:18:13.644Z,6.85
2022-11-01T00:21:55.659Z,4.00
2022-11-01T00:25:38.279Z,2.33
2022-11-01T00:29:20.135Z,2.92
2022-11-01T00:33:02.263Z,3.13
2022-11-01T00:36:44.144Z,2.25
2022-11-01T00:40:26.523Z,5.95
2022-11-01T00:44:08.385Z,5.65
2022-11-01T00:47:50.182Z,2.92
2022-11-01T04:48:20.569Z,9.98
2022-11-01T04:52:02.386Z,17.00
2022-11-01T04:55:44.378Z,12.38
2022-11-01T04:59:26.250Z,8.25
2022-11-01T05:03:10.959Z,14.40
2022-11-01T05:06:52.820Z,12.60
2022-11-01T05:10:36.273Z,17.95
2022-11-01T05:14:18.459Z,21.38
2022-11-01T05:18:01.890Z,10.88
2022-11-01T05:21:43.937Z,14.60
2022-11-01T05:25:26.109Z,20.85
2022-11-01T05:29:08.999Z,13.63
2022-11-01T05:33:02.578Z,16.50
2022-11-01T05:36:44.647Z,16.15
2022-11-01T05:40:26.871Z,16.00
2022-11-01T05:44:21.218Z,25.00
2022-11-01T05:48:04.447Z,15.93
2022-11-01T05:51:49.055Z,15.52
2022-11-01T05:55:30.889Z,13.65
2022-11-01T05:59:28.303Z,20.10
2022-11-01T06:03:10.131Z,11.63
2022-11-01T06:06:52.097Z,11.10
2022-11-01T06:10:34.361Z,16.83
2022-11-01T06:14:18.460Z,8.68
2022-11-01T06:18:03.181Z,7.57
2022-11-01T06:21:45.799Z,7.25
2022-11-01T06:25:28.838Z,5.60
2022-11-01T06:29:17.212Z,3.67
2022-11-01T06:33:01.548Z,10.07
2022-11-01T06:36:43.802Z,9.55
2022-11-01T06:40:25.598Z,8.23
2022-11-01T06:44:08.174Z,12.80
2022-11-01T06:47:53.852Z,10.68
